createdAt,value
2018-03-27T00:02:11.604Z,95363.79
2018-03-27T00:04:40.650Z,95368.39
2018-03-27T00:07:09.726Z,95363.30
2018-03-27T00:09:38.742Z,95362.11
2018-03-27T00:12:07.943Z,95361.20
2018-03-27T00:14:36.996Z,95361.53
2018-03-27T00:17:06.139Z,95356.91
2018-03-27T00:19:35.180Z,95355.42
2018-03-27T00:24:42.400Z,95357.17
2018-03-27T00:27:10.714Z,95360.66
2018-03-27T00:29:57.576Z,95356.64
2018-03-27T00:35:27.419Z,95356.78
2018-03-27T00:43:15.278Z,95356.18
2018-03-27T00:48:20.567Z,95359.36
2018-03-27T00:50:49.836Z,95353.77
2018-03-27T00:53:18.877Z,95351.65
2018-03-27T00:55:47.943Z,95355.08
2018-03-27T00:58:17.006Z,95358.57
2018-03-27T01:00:46.068Z,95358.30
2018-03-27T01:03:15.198Z,95363.11
2018-03-27T01:05:44.240Z,95359.14
2018-03-27T01:08:13.295Z,95357.60
2018-03-27T01:10:42.349Z,95357.17
2018-03-27T01:13:11.585Z,95357.38
2018-03-27T01:15:40.640Z,95358.41
2018-03-27T01:18:09.714Z,95357.38
2018-03-27T01:20:38.811Z,95359.31
2018-03-27T01:23:07.855Z,95354.97
2018-03-27T01:25:36.911Z,95354.22
2018-03-27T01:28:06.148Z,95354.27
2018-03-27T01:30:35.400Z,95350.36
2018-03-27T01:33:04.421Z,95351.97
2018-03-27T01:35:33.481Z,95346.77
2018-03-27T01:38:02.543Z,95346.66
2018-03-27T01:40:31.763Z,95347.52
2018-03-27T01:43:00.801Z,95344.23
2018-03-27T01:45:29.863Z,95350.64
2018-03-27T01:47:58.899Z,95351.70
2018-03-27T01:50:27.952Z,95348.27
2018-03-27T01:52:56.994Z,95347.20
2018-03-27T01:55:26.066Z,95347.38
2018-03-27T01:57:56.062Z,95342.16
2018-03-27T02:00:25.168Z,95342.89
2018-03-27T02:02:57.575Z,95345.33
2018-03-27T02:05:26.620Z,95342.05
2018-03-27T02:10:30.977Z,95344.52
2018-03-27T02:13:06.755Z,95352.35
2018-03-27T02:18:23.823Z,95348.33
2018-03-27T02:20:58.579Z,95344.69
2018-03-27T02:23:33.007Z,95348.39
2018-03-27T02:26:02.051Z,95351.45
2018-03-27T02:28:31.108Z,95345.73
2018-03-27T02:31:00.178Z,95350.26
2018-03-27T02:33:29.235Z,95342.19
2018-03-27T02:36:05.747Z,95343.06
2018-03-27T02:38:34.819Z,95342.14
2018-03-27T02:41:04.792Z,95340.32
2018-03-27T02:43:37.747Z,95341.61
2018-03-27T02:48:43.137Z,95337.37
2018-03-27T02:51:12.159Z,95334.63
2018-03-27T02:53:41.208Z,95337.16
2018-03-27T02:56:10.354Z,95337.74
2018-03-27T02:58:39.391Z,95338.95
2018-03-27T03:01:08.475Z,95340.27
2018-03-27T03:03:37.525Z,95339.05
2018-03-27T03:06:06.714Z,95338.33
2018-03-27T03:08:35.785Z,95336.46
2018-03-27T03:11:04.820Z,95337.70
2018-03-27T03:13:34.119Z,95332.64
2018-03-27T03:16:03.185Z,95334.15
2018-03-27T03:21:07.419Z,95340.00
2018-03-27T03:23:36.488Z,95343.97
2018-03-27T03:26:05.551Z,95344.02
2018-03-27T03:28:34.695Z,95344.59
2018-03-27T03:31:03.755Z,95344.48
2018-03-27T03:33:32.799Z,95345.10
2018-03-27T03:36:01.846Z,95346.34
2018-03-27T03:38:31.037Z,95348.25
2018-03-27T03:41:00.106Z,95348.74
2018-03-27T03:43:29.138Z,95354.77
2018-03-27T03:45:58.439Z,95351.75
2018-03-27T03:48:27.506Z,95350.25
2018-03-27T03:50:56.546Z,95348.47
2018-03-27T03:53:25.596Z,95346.70
2018-03-27T03:55:54.735Z,95342.47
2018-03-27T03:58:23.784Z,95341.45
2018-03-27T04:00:52.832Z,95343.56
2018-03-27T04:03:22.041Z,95348.88
2018-03-27T04:05:51.073Z,95350.53
2018-03-27T04:08:20.133Z,95347.37
2018-03-27T04:10:49.274Z,95349.60
2018-03-27T04:13:18.328Z,95349.89
2018-03-27T04:15:47.386Z,95348.66
2018-03-27T04:18:16.448Z,95348.87
2018-03-27T04:20:45.506Z,95351.49
2018-03-27T04:23:14.575Z,95347.28
2018-03-27T04:25:43.631Z,95348.83
2018-03-27T04:28:12.734Z,95350.64
2018-03-27T04:30:41.765Z,95351.45
2018-03-27T04:33:10.844Z,95351.41
2018-03-27T04:35:39.901Z,95348.33
2018-03-27T04:38:09.044Z,95350.67
2018-03-27T04:40:38.089Z,95347.05
2018-03-27T04:43:07.367Z,95347.06
2018-03-27T04:45:36.531Z,95348.47
2018-03-27T04:48:05.810Z,95349.76
2018-03-27T04:50:34.856Z,95351.13
2018-03-27T04:53:03.912Z,95353.58
2018-03-27T04:55:33.995Z,95345.45
2018-03-27T05:00:40.466Z,95343.16
2018-03-27T05:03:09.817Z,95343.11
2018-03-27T05:05:38.885Z,95347.16
2018-03-27T05:08:07.947Z,95347.18
2018-03-27T05:10:37.115Z,95359.25
2018-03-27T05:13:06.205Z,95364.55
2018-03-27T05:15:35.265Z,95359.55
2018-03-27T05:18:04.384Z,95354.87
2018-03-27T05:20:33.518Z,95349.61
2018-03-27T05:23:02.574Z,95361.19
2018-03-27T05:25:31.616Z,95360.54
2018-03-27T05:28:02.751Z,95355.38
2018-03-27T05:30:31.876Z,95355.44
2018-03-27T05:33:00.909Z,95357.60
2018-03-27T05:35:30.173Z,95359.27
2018-03-27T05:37:59.224Z,95357.73
2018-03-27T05:40:28.283Z,95361.19
2018-03-27T05:42:57.361Z,95360.48
2018-03-27T05:45:26.423Z,95360.06
2018-03-27T05:47:55.488Z,95367.68
2018-03-27T05:50:24.561Z,95365.70
2018-03-27T05:52:54.341Z,95368.69
2018-03-27T05:55:23.401Z,95363.75
2018-03-27T05:57:53.480Z,95366.63
2018-03-27T06:00:25.210Z,95358.94
2018-03-27T06:02:54.426Z,95364.46
2018-03-27T06:05:23.471Z,95365.05
2018-03-27T06:07:54.649Z,95374.91
2018-03-27T06:10:23.750Z,95370.77
2018-03-27T06:12:52.813Z,95375.25
2018-03-27T06:15:21.944Z,95375.86
2018-03-27T06:17:51.283Z,95377.05
2018-03-27T06:20:20.338Z,95378.61
2018-03-27T06:22:49.568Z,95382.92
2018-03-27T06:25:18.632Z,95378.22
2018-03-27T06:27:48.632Z,95381.44
2018-03-27T06:30:17.840Z,95377.03
2018-03-27T06:32:46.915Z,95383.55
2018-03-27T06:35:16.082Z,95384.23
2018-03-27T06:37:45.264Z,95385.50
2018-03-27T06:40:14.319Z,95382.77
2018-03-27T06:42:43.379Z,95385.62
2018-03-27T06:45:13.442Z,95386.13
2018-03-27T06:47:44.532Z,95385.52
2018-03-27T06:50:14.484Z,95388.22
2018-03-27T06:55:18.795Z,95391.61
2018-03-27T07:00:24.036Z,95394.37
2018-03-27T07:02:53.129Z,95395.78
2018-03-27T07:05:23.276Z,95395.49
2018-03-27T07:07:57.724Z,95396.15
2018-03-27T07:10:28.352Z,95393.55
2018-03-27T07:12:56.946Z,95394.36
2018-03-27T07:15:25.483Z,95394.92
2018-03-27T07:17:53.989Z,95393.83
2018-03-27T07:20:30.380Z,95390.65
2018-03-27T07:23:00.650Z,95394.77
2018-03-27T07:25:29.170Z,95396.22
2018-03-27T07:27:57.770Z,95398.33
2018-03-27T07:30:26.270Z,95386.27
2018-03-27T07:32:54.779Z,95390.83
2018-03-27T07:35:23.839Z,95389.37
2018-03-27T07:37:54.172Z,95391.25
2018-03-27T07:40:23.694Z,95396.19
2018-03-27T07:42:52.217Z,95403.17
2018-03-27T07:45:20.738Z,95406.65
2018-03-27T07:47:56.204Z,95400.91
2018-03-27T07:50:24.715Z,95406.84
2018-03-27T07:52:53.242Z,95411.27
2018-03-27T07:55:22.959Z,95405.16
2018-03-27T07:57:52.502Z,95409.61
2018-03-27T08:00:21.024Z,95403.59
2018-03-27T08:02:53.050Z,95406.53
2018-03-27T08:05:26.498Z,95403.30
2018-03-27T08:07:55.017Z,95402.08
2018-03-27T08:10:25.058Z,95406.59
2018-03-27T08:12:53.579Z,95398.92
2018-03-27T08:15:33.307Z,95401.53
2018-03-27T08:18:03.745Z,95399.08
2018-03-27T08:20:34.270Z,95402.33
2018-03-27T08:23:02.796Z,95404.45
2018-03-27T08:25:31.570Z,95401.03
2018-03-27T08:28:00.120Z,95405.69
2018-03-27T08:30:30.162Z,95403.92
2018-03-27T08:32:58.696Z,95402.63
2018-03-27T08:35:27.203Z,95406.32
2018-03-27T08:37:57.558Z,95414.48
2018-03-27T08:40:26.078Z,95411.87
2018-03-27T08:42:55.386Z,95416.57
2018-03-27T08:45:37.092Z,95412.19
2018-03-27T08:48:06.175Z,95411.81
2018-03-27T08:50:34.729Z,95415.73
2018-03-27T08:53:12.460Z,95416.67
2018-03-27T08:55:40.954Z,95415.09
2018-03-27T08:58:11.858Z,95416.04
2018-03-27T09:00:40.421Z,95417.78
2018-03-27T09:03:09.508Z,95415.47
2018-03-27T09:05:39.067Z,95417.77
2018-03-27T09:08:07.807Z,95417.89
2018-03-27T09:10:37.334Z,95409.27
2018-03-27T09:13:05.858Z,95406.92
2018-03-27T09:15:34.626Z,95399.18
2018-03-27T09:18:03.486Z,95393.16
2018-03-27T09:20:31.998Z,95397.89
2018-03-27T09:23:00.821Z,95396.89
2018-03-27T09:25:31.308Z,95409.14
2018-03-27T09:27:59.970Z,95405.36
2018-03-27T09:30:32.132Z,95395.88
2018-03-27T09:33:01.250Z,95390.88
2018-03-27T09:35:30.690Z,95389.34
2018-03-27T09:37:59.631Z,95380.98
2018-03-27T09:40:28.321Z,95385.59
2018-03-27T09:42:57.438Z,95388.14
2018-03-27T09:45:25.997Z,95392.48
2018-03-27T09:47:55.768Z,95386.80
2018-03-27T09:50:27.012Z,95378.02
2018-03-27T09:52:55.547Z,95373.88
2018-03-27T09:55:24.797Z,95372.81
2018-03-27T09:57:53.634Z,95366.72
2018-03-27T10:00:28.377Z,95369.56
2018-03-27T10:02:57.560Z,95367.78
2018-03-27T10:05:26.090Z,95366.42
2018-03-27T10:07:55.125Z,95366.14
2018-03-27T10:10:23.658Z,95363.38
2018-03-27T10:12:53.856Z,95354.58
2018-03-27T10:15:22.374Z,95356.88
2018-03-27T10:17:53.198Z,95359.13
2018-03-27T10:20:26.930Z,95361.42
2018-03-27T10:22:56.088Z,95362.86
2018-03-27T10:25:25.290Z,95358.11
2018-03-27T10:27:54.175Z,95354.14
2018-03-27T10:30:24.539Z,95352.69
2018-03-27T10:32:54.578Z,95339.06
2018-03-27T10:35:23.114Z,95340.62
2018-03-27T10:37:53.376Z,95338.48
2018-03-27T10:40:22.846Z,95334.91
2018-03-27T10:42:52.626Z,95346.80
2018-03-27T10:45:24.067Z,95337.46
2018-03-27T10:47:53.191Z,95331.19
2018-03-27T10:50:22.551Z,95327.28
2018-03-27T10:52:52.959Z,95325.70
2018-03-27T10:55:22.534Z,95320.59
2018-03-27T10:57:52.579Z,95316.03
2018-03-27T11:00:21.133Z,95318.87
2018-03-27T11:02:50.223Z,95325.34
2018-03-27T11:05:18.723Z,95324.05
2018-03-27T11:07:47.610Z,95321.58
2018-03-27T11:10:16.145Z,95313.55
2018-03-27T11:12:45.110Z,95306.67
2018-03-27T11:15:13.613Z,95297.81
2018-03-27T11:17:43.135Z,95294.60
2018-03-27T11:20:11.635Z,95289.63
2018-03-27T11:22:40.272Z,95288.97
2018-03-27T11:25:11.073Z,95290.13
2018-03-27T11:27:42.113Z,95284.15
2018-03-27T11:30:10.622Z,95293.66
2018-03-27T11:32:39.158Z,95288.64
2018-03-27T11:35:07.718Z,95289.17
2018-03-27T11:37:36.259Z,95290.48
2018-03-27T11:40:05.261Z,95289.58
2018-03-27T11:42:33.784Z,95286.62
2018-03-27T11:45:03.803Z,95284.30
2018-03-27T11:47:32.399Z,95279.91
2018-03-27T11:50:02.534Z,95277.00
2018-03-27T11:52:31.063Z,95269.11
2018-03-27T11:54:59.576Z,95255.63
2018-03-27T11:57:30.556Z,95251.11
2018-03-27T11:59:59.057Z,95235.58
2018-03-27T12:02:28.558Z,95223.51
2018-03-27T12:04:57.082Z,95219.81
2018-03-27T12:07:25.912Z,95214.06
2018-03-27T12:09:55.049Z,95210.30
2018-03-27T12:12:23.585Z,95203.31
2018-03-27T12:14:53.279Z,95211.11
2018-03-27T12:17:21.859Z,95208.31
2018-03-27T12:19:52.638Z,95210.56
2018-03-27T12:22:21.186Z,95211.48
2018-03-27T12:24:50.642Z,95207.53
2018-03-27T12:27:23.731Z,95205.41
2018-03-27T12:29:53.315Z,95206.34
2018-03-27T12:32:23.446Z,95200.73
2018-03-27T12:34:53.192Z,95198.97
2018-03-27T12:37:22.622Z,95195.13
2018-03-27T12:39:51.884Z,95188.70
2018-03-27T12:42:21.434Z,95192.57
2018-03-27T12:44:52.377Z,95196.64
2018-03-27T12:47:20.883Z,95193.33
2018-03-27T12:49:50.032Z,95194.95
2018-03-27T12:52:20.474Z,95190.67
2018-03-27T12:54:49.059Z,95181.70
2018-03-27T12:57:17.590Z,95184.61
2018-03-27T12:59:46.478Z,95184.55
2018-03-27T13:02:15.030Z,95180.92
2018-03-27T13:04:44.013Z,95175.66
2018-03-27T13:07:14.481Z,95166.10
2018-03-27T13:09:43.202Z,95163.56
2018-03-27T13:12:11.722Z,95159.52
2018-03-27T13:14:42.163Z,95158.86
2018-03-27T13:17:11.905Z,95159.42
2018-03-27T13:19:40.471Z,95159.45
2018-03-27T13:22:09.010Z,95159.77
2018-03-27T13:24:38.618Z,95155.94
2018-03-27T13:27:07.122Z,95153.27
2018-03-27T13:29:35.662Z,95151.66
2018-03-27T13:32:04.193Z,95155.80
2018-03-27T13:34:36.825Z,95155.59
2018-03-27T13:37:05.395Z,95153.38
2018-03-27T13:39:35.042Z,95147.93
2018-03-27T13:42:07.170Z,95152.09
2018-03-27T13:44:36.601Z,95147.02
2018-03-27T13:47:07.134Z,95147.27
2018-03-27T13:49:35.677Z,95146.19
2018-03-27T13:52:05.123Z,95145.89
2018-03-27T13:54:35.586Z,95141.29
2018-03-27T13:57:06.107Z,95137.45
2018-03-27T13:59:38.192Z,95133.45
2018-03-27T14:02:16.996Z,95126.57
2018-03-27T14:04:46.833Z,95119.42
2018-03-27T14:07:17.324Z,95116.89
2018-03-27T14:09:45.849Z,95108.00
2018-03-27T14:12:14.397Z,95102.62
2018-03-27T14:14:42.919Z,95102.88
2018-03-27T14:17:13.072Z,95102.73
2018-03-27T14:19:42.506Z,95107.97
2018-03-27T14:22:11.054Z,95106.45
2018-03-27T14:24:40.165Z,95107.93
2018-03-27T14:27:10.661Z,95106.29
2018-03-27T14:29:39.760Z,95104.34
2018-03-27T14:32:08.362Z,95107.27
2018-03-27T14:34:36.893Z,95101.95
2018-03-27T14:37:05.949Z,95095.80
2018-03-27T14:39:34.487Z,95094.20
2018-03-27T14:42:04.358Z,95092.48
2018-03-27T14:44:32.879Z,95092.79
2018-03-27T14:47:03.422Z,95089.86
2018-03-27T14:49:32.937Z,95084.23
2018-03-27T14:52:01.467Z,95078.55
2018-03-27T14:54:30.013Z,95082.43
2018-03-27T14:56:58.533Z,95079.72
2018-03-27T14:59:27.524Z,95077.75
2018-03-27T15:01:56.030Z,95074.25
2018-03-27T15:04:25.670Z,95079.23
2018-03-27T15:06:54.200Z,95074.69
2018-03-27T15:09:22.733Z,95072.18
2018-03-27T15:11:52.685Z,95064.13
2018-03-27T15:14:21.751Z,95060.17
2018-03-27T15:16:51.699Z,95061.28
2018-03-27T15:19:21.221Z,95058.12
2018-03-27T15:21:51.150Z,95046.97
2018-03-27T15:24:19.652Z,95041.27
2018-03-27T15:26:49.470Z,95037.80
2018-03-27T15:29:19.972Z,95031.64
2018-03-27T15:31:48.503Z,95033.98
2018-03-27T15:34:18.465Z,95025.70
2018-03-27T15:36:47.892Z,95027.00
2018-03-27T15:39:16.430Z,95025.41
2018-03-27T15:41:45.217Z,95025.89
2018-03-27T15:44:13.742Z,95019.87
2018-03-27T15:46:43.909Z,95020.66
2018-03-27T15:49:12.433Z,95017.95
2018-03-27T15:51:41.145Z,95012.91
2018-03-27T15:54:09.711Z,95013.13
2018-03-27T15:56:43.653Z,95014.56
2018-03-27T15:59:12.186Z,95008.23
2018-03-27T16:01:40.731Z,95012.42
2018-03-27T16:04:09.261Z,95012.24
2018-03-27T16:06:38.154Z,95006.84
2018-03-27T16:09:06.770Z,95007.89
2018-03-27T16:11:35.286Z,95007.88
2018-03-27T16:14:03.809Z,95009.87
2018-03-27T16:16:32.362Z,95006.34
2018-03-27T16:19:00.889Z,95000.62
2018-03-27T16:21:30.458Z,94999.66
2018-03-27T16:24:05.878Z,95003.34
2018-03-27T16:26:34.410Z,94997.45
2018-03-27T16:29:02.951Z,94993.48
2018-03-27T16:31:35.378Z,94991.17
2018-03-27T16:34:03.955Z,94992.55
2018-03-27T16:36:32.789Z,94992.53
2018-03-27T16:39:02.296Z,94988.00
2018-03-27T16:41:44.597Z,94985.16
2018-03-27T16:44:13.179Z,94980.19
2018-03-27T16:46:42.424Z,94981.78
2018-03-27T16:49:10.983Z,94975.00
2018-03-27T16:51:41.390Z,94977.87
2018-03-27T16:54:09.910Z,94978.91
2018-03-27T16:56:44.150Z,94975.59
2018-03-27T16:59:13.302Z,94969.06
2018-03-27T17:01:41.818Z,94972.08
2018-03-27T17:04:10.301Z,94966.23
2018-03-27T17:06:40.219Z,94964.84
2018-03-27T17:09:08.727Z,94961.25
2018-03-27T17:11:39.514Z,94954.35
2018-03-27T17:14:08.037Z,94953.03
2018-03-27T17:16:38.491Z,94947.89
2018-03-27T17:19:07.046Z,94947.49
2018-03-27T17:21:35.564Z,94943.58
2018-03-27T17:24:04.097Z,94942.17
2018-03-27T17:26:32.609Z,94941.22
2018-03-27T17:29:01.307Z,94940.87
2018-03-27T17:31:30.912Z,94938.70
2018-03-27T17:33:59.546Z,94938.75
2018-03-27T17:36:28.214Z,94937.00
2018-03-27T17:38:56.730Z,94936.85
2018-03-27T17:41:25.247Z,94933.81
2018-03-27T17:43:54.867Z,94932.70
2018-03-27T17:46:25.322Z,94927.02
2018-03-27T17:48:53.845Z,94933.45
2018-03-27T17:51:26.503Z,94931.66
2018-03-27T17:53:55.006Z,94929.66
2018-03-27T17:56:26.958Z,94930.13
2018-03-27T17:58:55.488Z,94923.56
2018-03-27T18:01:25.926Z,94927.17
2018-03-27T18:04:00.232Z,94927.33
2018-03-27T18:06:28.778Z,94929.89
2018-03-27T18:09:05.079Z,94934.16
2018-03-27T18:11:34.733Z,94935.69
2018-03-27T18:14:03.258Z,94933.09
2018-03-27T18:16:31.794Z,94934.41
2018-03-27T18:19:04.783Z,94937.36
2018-03-27T18:21:33.364Z,94938.88
2018-03-27T18:24:03.955Z,94938.04
2018-03-27T18:26:32.467Z,94945.54
2018-03-27T18:29:04.718Z,94942.22
2018-03-27T18:31:33.238Z,94944.70
2018-03-27T18:34:11.436Z,94943.99
2018-03-27T18:36:39.936Z,94945.32
2018-03-27T18:39:09.399Z,94940.56
2018-03-27T18:41:38.164Z,94943.00
2018-03-27T18:44:16.588Z,94941.81
2018-03-27T18:46:45.288Z,94944.11
2018-03-27T18:49:23.009Z,94938.78
2018-03-27T18:51:52.491Z,94938.31
2018-03-27T18:54:26.612Z,94939.01
2018-03-27T18:56:56.234Z,94937.31
2018-03-27T18:59:24.991Z,94932.67
2018-03-27T19:01:53.544Z,94928.16
2018-03-27T19:04:22.057Z,94928.94
2018-03-27T19:06:54.516Z,94933.89
2018-03-27T19:09:23.208Z,94932.32
2018-03-27T19:11:53.922Z,94932.72
2018-03-27T19:14:22.445Z,94937.75
2018-03-27T19:16:52.103Z,94936.20
2018-03-27T19:19:20.650Z,94938.02
2018-03-27T19:21:49.193Z,94935.82
2018-03-27T19:24:22.471Z,94933.12
2018-03-27T19:26:50.971Z,94926.31
2018-03-27T19:29:20.473Z,94929.34
2018-03-27T19:31:56.545Z,94923.33
2018-03-27T19:34:25.103Z,94918.67
2018-03-27T19:36:54.577Z,94916.13
2018-03-27T19:39:32.690Z,94910.82
2018-03-27T19:42:01.493Z,94911.80
2018-03-27T19:44:51.917Z,94914.55
2018-03-27T19:47:22.402Z,94921.41
2018-03-27T19:49:51.005Z,94918.73
2018-03-27T19:52:46.981Z,94920.00
2018-03-27T19:55:20.100Z,94928.91
2018-03-27T19:57:48.606Z,94919.64
2018-03-27T20:00:17.274Z,94922.38
2018-03-27T20:02:46.396Z,94922.59
2018-03-27T20:05:14.965Z,94920.55
2018-03-27T20:07:43.851Z,94921.41
2018-03-27T20:10:12.491Z,94918.80
2018-03-27T20:12:41.128Z,94913.33
2018-03-27T20:15:09.979Z,94917.87
2018-03-27T20:17:38.499Z,94918.10
2018-03-27T20:20:07.037Z,94921.23
2018-03-27T20:22:35.543Z,94905.31
2018-03-27T20:25:04.055Z,94903.34
2018-03-27T20:27:33.473Z,94902.52
2018-03-27T20:30:01.995Z,94904.54
2018-03-27T20:32:30.572Z,94904.77
2018-03-27T20:34:59.126Z,94897.02
2018-03-27T20:37:39.298Z,94899.06
2018-03-27T20:40:07.875Z,94907.89
2018-03-27T20:42:36.402Z,94905.39
2018-03-27T20:45:04.998Z,94899.89
2018-03-27T20:47:33.525Z,94898.05
2018-03-27T20:50:11.754Z,94895.05
2018-03-27T20:52:40.267Z,94899.22
2018-03-27T20:55:16.442Z,94896.15
2018-03-27T20:57:44.893Z,94907.94
2018-03-27T21:00:13.412Z,94901.08
2018-03-27T21:02:41.937Z,94900.12
2018-03-27T21:05:15.471Z,94902.81
2018-03-27T21:07:44.879Z,94905.69
2018-03-27T21:10:15.292Z,94911.25
2018-03-27T21:12:44.149Z,94913.30
2018-03-27T21:15:12.669Z,94914.94
2018-03-27T21:17:41.197Z,94913.69
2018-03-27T21:20:14.862Z,94912.85
2018-03-27T21:22:44.746Z,94915.13
2018-03-27T21:25:15.163Z,94909.28
2018-03-27T21:27:44.632Z,94915.59
2018-03-27T21:30:15.085Z,94915.67
2018-03-27T21:32:43.625Z,94913.62
2018-03-27T21:35:12.258Z,94914.48
2018-03-27T21:38:03.555Z,94909.87
2018-03-27T21:40:32.297Z,94906.76
2018-03-27T21:43:02.987Z,94906.06
2018-03-27T21:45:31.500Z,94902.42
2018-03-27T21:48:09.987Z,94902.16
2018-03-27T21:50:38.510Z,94904.75
2018-03-27T21:53:10.504Z,94903.70
2018-03-27T21:55:43.054Z,94904.73
2018-03-27T21:58:18.807Z,94902.20
2018-03-27T22:00:52.851Z,94900.29
2018-03-27T22:03:29.552Z,94898.62
2018-03-27T22:05:58.445Z,94896.13
2018-03-27T22:08:26.970Z,94893.33
2018-03-27T22:10:55.478Z,94892.80
2018-03-27T22:13:27.186Z,94889.89
2018-03-27T22:15:55.715Z,94891.86
2018-03-27T22:18:25.190Z,94893.16
2018-03-27T22:20:56.539Z,94889.11
2018-03-27T22:23:33.997Z,94892.27
2018-03-27T22:26:02.565Z,94885.52
2018-03-27T22:28:32.150Z,94881.95
2018-03-27T22:31:00.681Z,94884.19
2018-03-27T22:33:29.198Z,94879.60
2018-03-27T22:35:57.737Z,94878.03
2018-03-27T22:38:26.264Z,94867.64
2018-03-27T22:40:54.774Z,94868.71
2018-03-27T22:43:37.099Z,94871.82
2018-03-27T22:46:33.511Z,94863.96
2018-03-27T22:49:15.693Z,94861.27
2018-03-27T22:51:44.209Z,94863.71
2018-03-27T22:54:12.758Z,94862.92
2018-03-27T22:56:41.278Z,94855.48
2018-03-27T22:59:09.809Z,94859.36
2018-03-27T23:01:40.231Z,94856.16
2018-03-27T23:04:17.293Z,94851.95
2018-03-27T23:06:45.820Z,94851.52
2018-03-27T23:09:15.242Z,94844.05
2018-03-27T23:11:43.866Z,94838.80
2018-03-27T23:14:12.374Z,94839.83
2018-03-27T23:16:40.925Z,94837.00
2018-03-27T23:19:09.547Z,94839.88
2018-03-27T23:21:47.439Z,94839.60
2018-03-27T23:24:15.958Z,94838.81
2018-03-27T23:26:44.705Z,94834.93
2018-03-27T23:29:13.284Z,94832.35
2018-03-27T23:31:41.794Z,94841.58
2018-03-27T23:34:14.283Z,94836.98
2018-03-27T23:36:42.844Z,94837.61
2018-03-27T23:39:12.277Z,94832.14
2018-03-27T23:41:40.807Z,94833.45
2018-03-27T23:44:09.324Z,94834.94
2018-03-27T23:46:37.940Z,94841.58
2018-03-27T23:49:07.409Z,94839.01
2018-03-27T23:51:36.097Z,94823.73
2018-03-27T23:54:04.782Z,94833.39
2018-03-27T23:56:33.295Z,94828.00
2018-03-27T23:59:18.721Z,94832.97
